Time;durP1;ratioP1;P1;durP2;ratioP2;P2;SDS_P1;SDS_P2;PMS_P1;PMS_P2;Temp;Humidity;BMP_temperature;BMP_pressure;BME280_temperature;BME280_humidity;BME280_pressure;Samples;Min_cycle;Max_cycle;Signal;HPM_P1;HPM_P2
2022/06/03 00:02:07;;;;;;;11.68;6.72;;;;;;;-144.47;51.90;53312.94;5023349;28;20025;-68
2022/06/03 00:04:48;;;;;;;19.88;6.97;;;;;;;-144.47;51.77;53318.91;5027086;28;20071;-67
2022/06/03 00:07:13;;;;;;;10.73;5.07;;;;;;;-144.47;52.21;53318.91;5013784;28;20096;-68
2022/06/03 00:10:04;;;;;;;20.00;8.05;;;;;;;-144.47;52.19;53299.03;5018017;28;20605;-69
2022/06/03 00:12:38;;;;;;;17.63;7.47;;;;;;;-144.47;52.42;53310.94;5011522;28;20395;-70
2022/06/03 00:15:24;;;;;;;16.13;6.47;;;;;;;-144.47;52.09;53301.03;5007729;28;20037;-70
2022/06/03 00:18:26;;;;;;;17.05;6.80;;;;;;;-144.47;52.69;53336.78;5014291;28;20117;-67
2022/06/03 00:21:05;;;;;;;15.25;6.70;;;;;;;-144.47;52.23;53320.88;5005614;28;20033;-69
2022/06/03 00:24:02;;;;;;;10.18;5.72;;;;;;;-144.47;52.79;53332.81;5016171;28;20472;-69
2022/06/03 00:26:54;;;;;;;15.93;5.97;;;;;;;-144.47;53.93;53330.81;5016311;28;20033;-69
2022/06/03 00:29:25;;;;;;;11.90;6.53;;;;;;;-144.47;52.47;53316.91;5019727;28;20033;-68
2022/06/03 00:31:56;;;;;;;10.23;5.78;;;;;;;-144.47;52.24;53299.03;5021400;28;20025;-68
2022/06/03 00:34:43;;;;;;;10.35;5.70;;;;;;;-144.47;52.83;53344.72;5030596;28;20028;-70
2022/06/03 00:37:17;;;;;;;9.60;5.57;;;;;;;-144.47;52.65;53312.94;5028980;28;20455;-70
2022/06/03 00:39:50;;;;;;;9.90;6.07;;;;;;;-144.47;52.84;53301.03;5014945;28;20037;-70
2022/06/03 00:42:28;;;;;;;11.38;6.00;;;;;;;-144.47;52.26;53348.69;5001937;28;20034;-70
2022/06/03 00:45:15;;;;;;;12.38;5.97;;;;;;;-144.47;52.26;53338.75;5022444;28;20491;-68
2022/06/03 00:48:21;;;;;;;13.38;5.60;;;;;;;-144.47;52.54;53308.97;5010503;28;20148;-68
2022/06/03 00:51:12;;;;;;;8.52;4.97;;;;;;;-144.47;53.98;53318.91;5002905;28;20038;-68
2022/06/03 00:53:56;;;;;;;10.23;5.50;;;;;;;-144.47;55.47;53340.75;5014946;28;20135;-69
2022/06/03 00:56:45;;;;;;;9.18;5.22;;;;;;;-144.47;55.87;53358.63;5027942;28;20345;-70
2022/06/03 00:59:54;;;;;;;10.45;5.57;;;;;;;-144.47;56.28;53330.81;5014989;28;20449;-67
2022/06/03 01:02:25;;;;;;;12.63;5.50;;;;;;;-144.47;56.37;53326.84;5029136;28;20026;-69
2022/06/03 01:04:56;;;;;;;11.63;5.65;;;;;;;-144.47;56.47;53291.09;5010430;28;20071;-69
2022/06/03 01:07:53;;;;;;;11.68;6.00;;;;;;;-144.47;56.98;53293.06;5010637;28;20081;-69
2022/06/03 01:10:49;;;;;;;13.13;6.10;;;;;;;-144.47;56.99;53338.75;5009092;28;20129;-66
2022/06/03 01:13:34;;;;;;;11.95;6.30;;;;;;;-144.47;56.81;53342.72;4999207;28;20193;-67
2022/06/03 01:16:05;;;;;;;12.82;5.88;;;;;;;-144.47;56.92;53316.91;5005897;28;20025;-68
2022/06/03 01:18:46;;;;;;;16.17;7.25;;;;;;;-144.47;57.11;53305.00;5017327;28;20083;-68
2022/06/03 01:21:17;;;;;;;13.02;6.63;;;;;;;-144.47;57.13;53334.78;5019882;28;20101;-66
2022/06/03 01:23:51;;;;;;;10.13;6.20;;;;;;;-144.47;57.50;53324.84;5029375;28;20040;-68
2022/06/03 01:26:35;;;;;;;12.82;6.40;;;;;;;-144.47;57.34;53320.88;5007830;28;20030;-69
2022/06/03 01:29:00;;;;;;;11.98;7.05;;;;;;;-144.47;57.88;53328.81;5012277;28;20329;-70
2022/06/03 01:31:50;;;;;;;15.48;7.05;;;;;;;-144.47;57.69;53314.91;5015081;28;20056;-71
2022/06/03 01:34:16;;;;;;;12.40;6.72;;;;;;;-144.47;58.05;53354.66;5029609;28;20033;-66
2022/06/03 01:37:07;;;;;;;13.38;6.32;;;;;;;-144.47;58.34;53308.97;5010276;28;20432;-69
2022/06/03 01:40:14;;;;;;;15.38;6.95;;;;;;;-144.47;58.41;53340.75;5008889;28;20040;-67
2022/06/03 01:43:00;;;;;;;13.30;7.30;;;;;;;-144.47;58.41;53354.66;4969237;28;20105;-69
2022/06/03 01:45:37;;;;;;;11.98;6.35;;;;;;;-144.47;58.50;53328.81;5003667;23;20087;-67
2022/06/03 01:48:02;;;;;;;17.00;6.93;;;;;;;-144.47;59.28;53332.81;5008149;28;20080;-68
2022/06/03 01:50:55;;;;;;;12.88;6.35;;;;;;;-144.47;59.30;53348.69;4992859;28;20105;-65
2022/06/03 01:53:42;;;;;;;14.40;7.35;;;;;;;-144.47;59.65;53336.78;5011534;28;20034;-68
2022/06/03 01:56:25;;;;;;;11.75;6.60;;;;;;;-144.47;59.63;53396.38;4997952;28;20026;-69
2022/06/03 01:59:09;;;;;;;11.55;7.05;;;;;;;-144.47;58.97;53360.63;5009517;28;20030;-67
2022/06/03 02:02:05;;;;;;;10.73;5.70;;;;;;;-144.47;59.59;53354.66;5002647;28;20033;-69
2022/06/03 02:05:18;;;;;;;10.07;6.00;;;;;;;-144.47;59.66;53364.59;5005064;28;20157;-66
2022/06/03 02:08:22;;;;;;;15.18;6.47;;;;;;;-144.47;59.92;53360.63;4911370;29;20060;-67
2022/06/03 02:11:15;;;;;;;12.88;6.63;;;;;;;-144.47;59.55;53342.72;4893941;29;20036;-66
2022/06/03 02:14:01;;;;;;;16.13;6.68;;;;;;;-144.47;59.63;53328.81;4983160;28;20457;-64
2022/06/03 02:16:42;;;;;;;14.75;6.40;;;;;;;-144.47;60.17;53358.63;4977373;28;20069;-68
2022/06/03 02:19:32;;;;;;;15.75;7.65;;;;;;;-144.47;59.87;53352.66;5004379;28;20266;-69
2022/06/03 02:22:03;;;;;;;12.07;6.95;;;;;;;-144.47;59.89;53308.97;5007921;28;20072;-69
2022/06/03 02:24:47;;;;;;;19.45;7.00;;;;;;;-144.47;59.91;53346.72;5012114;28;20184;-66
2022/06/03 02:27:44;;;;;;;16.35;7.15;;;;;;;-144.47;60.17;53324.84;5004448;28;20160;-69
2022/06/03 02:30:24;;;;;;;14.13;6.45;;;;;;;-144.47;60.48;53360.63;4993889;28;20033;-68
2022/06/03 02:33:20;;;;;;;18.38;6.70;;;;;;;-144.47;60.47;53330.81;5011403;28;20044;-67
2022/06/03 02:36:22;;;;;;;15.65;7.32;;;;;;;-144.47;60.88;53362.59;4990315;28;20030;-68
2022/06/03 02:39:04;;;;;;;13.02;6.50;;;;;;;-144.47;60.97;53358.63;4998262;28;20084;-67
2022/06/03 02:42:03;;;;;;;15.63;6.93;;;;;;;-144.47;61.26;53372.53;5007604;28;20114;-68
2022/06/03 02:44:38;;;;;;;20.40;8.18;;;;;;;-144.47;61.36;53350.69;5004772;28;20025;-68
2022/06/03 02:47:09;;;;;;;14.98;6.88;;;;;;;-144.47;61.26;53340.75;5001554;28;20060;-70
2022/06/03 02:49:53;;;;;;;21.88;8.57;;;;;;;-144.47;60.93;53334.78;5005995;28;20525;-67
2022/06/03 02:52:40;;;;;;;14.23;8.25;;;;;;;-144.47;61.20;53352.66;4994753;28;20026;-67
2022/06/03 02:55:18;;;;;;;19.27;8.23;;;;;;;-144.47;61.18;53320.88;4987352;28;20030;-68
2022/06/03 02:58:48;;;;;;;15.32;7.97;;;;;;;-144.47;61.42;53340.75;5006584;28;20033;-66
2022/06/03 03:01:36;;;;;;;13.88;7.95;;;;;;;-144.47;60.87;53356.63;4909061;29;20123;-68
2022/06/03 03:04:22;;;;;;;14.20;8.10;;;;;;;-144.47;61.66;53374.50;4910226;29;20303;-64
2022/06/03 03:07:12;;;;;;;16.40;7.72;;;;;;;-144.47;61.24;53332.81;4994144;28;20326;-68
2022/06/03 03:09:40;;;;;;;18.45;7.45;;;;;;;-144.47;60.42;53354.66;5009020;28;20488;-67
2022/06/03 03:12:21;;;;;;;10.68;6.13;;;;;;;-144.47;59.46;53346.72;4994605;28;20030;-69
2022/06/03 03:15:21;;;;;;;10.63;6.20;;;;;;;-144.47;59.55;53330.81;4995569;28;20209;-69
2022/06/03 03:17:55;;;;;;;10.32;6.03;;;;;;;-144.47;60.06;53340.75;4998482;28;20117;-67
2022/06/03 03:20:29;;;;;;;30.17;7.75;;;;;;;-144.47;60.54;53340.75;4990963;28;20483;-69
2022/06/03 03:23:24;;;;;;;12.82;6.90;;;;;;;-144.47;60.93;53338.75;5009007;28;20029;-70
2022/06/03 03:25:56;;;;;;;25.73;10.02;;;;;;;-144.47;60.86;53350.69;4948124;28;20035;-70
2022/06/03 03:28:37;;;;;;;23.73;13.85;;;;;;;-144.47;60.78;53330.81;5003924;28;20034;-67
2022/06/03 03:31:17;;;;;;;21.75;10.93;;;;;;;-144.47;60.87;53314.91;5009211;28;20417;-66
2022/06/03 03:34:09;;;;;;;21.48;9.57;;;;;;;-144.47;60.62;53326.84;4977280;28;20027;-68
2022/06/03 03:36:53;;;;;;;16.38;8.95;;;;;;;-144.47;60.54;53340.75;4991565;28;20088;-68
2022/06/03 03:39:33;;;;;;;13.07;8.13;;;;;;;-144.47;60.37;53344.72;5008619;28;20105;-67
2022/06/03 03:42:05;;;;;;;22.63;9.38;;;;;;;-144.47;60.38;53362.59;5008870;28;20022;-68
2022/06/03 03:44:57;;;;;;;17.27;8.45;;;;;;;-144.47;60.07;53386.44;4996087;28;20101;-68
2022/06/03 03:48:18;;;;;;;21.83;9.00;;;;;;;-144.47;60.04;53386.44;4979957;28;20026;-68
2022/06/03 03:51:05;;;;;;;18.58;7.30;;;;;;;-144.47;58.88;53360.63;4915803;29;20040;-68
2022/06/03 03:53:46;;;;;;;12.52;6.18;;;;;;;-144.47;58.16;53318.91;4971842;28;20037;-67
2022/06/03 03:56:29;;;;;;;12.40;6.55;;;;;;;-144.47;57.79;53310.94;5008978;28;20033;-71
2022/06/03 03:59:32;;;;;;;10.93;6.00;;;;;;;-144.47;56.93;53336.78;4992472;28;20109;-65
2022/06/03 04:02:32;;;;;;;10.68;6.43;;;;;;;-144.47;57.03;53366.56;4917793;28;20423;-66
2022/06/03 04:05:16;;;;;;;12.85;6.47;;;;;;;-144.47;56.89;53318.91;4995036;28;20022;-68
2022/06/03 04:07:47;;;;;;;7.57;4.93;;;;;;;-144.47;56.42;53330.81;4993358;28;20062;-67
2022/06/03 04:10:21;;;;;;;11.07;5.18;;;;;;;-144.47;55.76;53334.78;5005410;28;20030;-68
2022/06/03 04:13:15;;;;;;;9.02;5.22;;;;;;;-144.47;55.47;53346.72;4992739;28;20034;-67
2022/06/03 04:15:52;;;;;;;7.93;5.15;;;;;;;-144.47;54.98;53312.94;4996493;28;20476;-65
2022/06/03 04:18:35;;;;;;;10.13;5.75;;;;;;;-144.47;54.66;53324.84;5013198;28;20037;-69
2022/06/03 04:21:34;;;;;;;8.88;4.97;;;;;;;-144.47;54.39;53350.69;5013093;28;20040;-67
2022/06/03 04:24:18;;;;;;;9.05;5.68;;;;;;;-144.47;54.18;53336.78;5013349;28;20117;-63
2022/06/03 04:26:49;;;;;;;9.95;5.13;;;;;;;-144.47;53.75;53332.81;5010222;28;20088;-64
2022/06/03 04:29:51;;;;;;;14.23;5.90;;;;;;;-144.47;53.56;53332.81;5001674;28;20030;-67
2022/06/03 04:32:20;;;;;;;8.98;5.10;;;;;;;-144.47;53.56;53332.81;5012271;28;20060;-67
2022/06/03 04:35:17;;;;;;;9.85;5.10;;;;;;;-144.47;53.66;53316.91;5002067;28;20089;-68
2022/06/03 04:38:20;;;;;;;8.02;5.10;;;;;;;-144.47;52.96;53340.75;4928823;28;20040;-66
2022/06/03 04:41:17;;;;;;;10.40;5.20;;;;;;;-144.47;52.64;53316.91;4987536;28;20030;-65
2022/06/03 04:43:49;;;;;;;10.20;5.68;;;;;;;-144.47;52.64;53330.81;5001598;28;20368;-67
2022/06/03 04:46:35;;;;;;;10.00;5.50;;;;;;;-144.47;52.43;53305.00;4997854;28;20038;-68
2022/06/03 04:49:04;;;;;;;9.82;5.20;;;;;;;-144.47;52.02;53287.13;5003465;28;20022;-69
2022/06/03 04:51:54;;;;;;;9.15;5.65;;;;;;;-144.47;51.87;53342.72;4992078;28;20105;-71
2022/06/03 04:55:02;;;;;;;10.85;5.30;;;;;;;-144.47;52.34;53306.97;4999712;28;20030;-67
2022/06/03 04:58:25;;;;;;;9.55;5.65;;;;;;;-144.47;52.59;53295.06;4993546;28;20420;-68
2022/06/03 05:01:00;;;;;;;14.85;6.60;;;;;;;-144.47;51.74;53310.94;4896397;29;20214;-64
2022/06/03 05:03:26;;;;;;;12.43;5.30;;;;;;;-144.47;51.29;53301.03;4913665;29;20080;-71
2022/06/03 05:05:57;;;;;;;10.52;5.82;;;;;;;-144.47;50.81;53295.06;4952762;28;20037;-65
2022/06/03 05:08:49;;;;;;;10.02;4.60;;;;;;;-144.47;50.84;53310.94;5012721;28;20459;-67
2022/06/03 05:11:31;;;;;;;9.05;5.03;;;;;;;-144.47;50.48;53297.03;5012601;28;20500;-69
2022/06/03 05:14:41;;;;;;;13.40;5.88;;;;;;;-144.47;49.80;53316.91;4995047;28;20314;-70
2022/06/03 05:17:57;;;;;;;8.23;5.13;;;;;;;-144.47;50.10;53277.19;5006811;28;20022;-66
2022/06/03 05:20:22;;;;;;;9.65;4.60;;;;;;;-144.47;49.60;53277.19;4912195;29;20039;-69
2022/06/03 05:23:06;;;;;;;10.10;4.75;;;;;;;-144.47;48.73;53287.13;4991530;28;20033;-68
2022/06/03 05:25:49;;;;;;;13.60;5.03;;;;;;;-144.47;48.04;53305.00;4987525;28;20101;-69
2022/06/03 05:28:21;;;;;;;10.32;4.85;;;;;;;-144.47;48.36;53287.13;5005173;28;20101;-66
2022/06/03 05:31:28;;;;;;;8.30;5.10;;;;;;;-144.47;48.31;53257.31;4993741;28;20033;-68
2022/06/03 05:34:10;;;;;;;12.60;4.60;;;;;;;-144.47;47.27;53314.91;4988877;28;20388;-66
2022/06/03 05:36:58;;;;;;;10.27;4.65;;;;;;;-144.47;47.39;53295.06;5005273;28;20442;-64
2022/06/03 05:39:33;;;;;;;11.80;4.72;;;;;;;-144.47;47.13;53277.19;5005994;28;20022;-67
2022/06/03 05:42:23;;;;;;;8.13;4.63;;;;;;;-144.47;46.72;53303.00;4984970;28;20026;-67
2022/06/03 05:45:23;;;;;;;8.63;4.30;;;;;;;-144.47;46.49;53283.13;4976190;28;20510;-67
2022/06/03 05:48:05;;;;;;;11.38;4.75;;;;;;;-144.47;46.60;53257.31;4972596;28;20121;-66
2022/06/03 05:50:42;;;;;;;9.63;3.78;;;;;;;-144.47;46.47;53289.09;5001335;28;20352;-67
2022/06/03 05:53:10;;;;;;;9.65;4.40;;;;;;;-144.47;46.58;53239.44;5011556;28;20033;-69
2022/06/03 05:55:55;;;;;;;6.90;3.43;;;;;;;-144.47;45.75;53285.13;5010837;28;20025;-69
2022/06/03 05:58:27;;;;;;;13.15;4.20;;;;;;;-144.47;45.89;53259.31;4987834;28;20034;-70
2022/06/03 06:01:20;;;;;;;10.32;3.70;;;;;;;-144.47;45.47;53267.25;4993445;28;20029;-65
2022/06/03 06:03:49;;;;;;;8.13;3.15;;;;;;;-144.47;45.18;53245.41;5007917;28;20030;-69
2022/06/03 06:06:25;;;;;;;6.38;3.03;;;;;;;-144.47;45.01;53225.53;4987490;28;20120;-67
2022/06/03 06:09:00;;;;;;;5.88;3.28;;;;;;;-144.47;44.74;53285.13;5005848;28;20048;-66
2022/06/03 06:11:28;;;;;;;7.28;2.90;;;;;;;-144.47;44.38;53295.06;4990520;28;20030;-68
2022/06/03 06:14:26;;;;;;;6.28;3.08;;;;;;;-144.47;44.68;53207.66;4982929;28;20364;-67
2022/06/03 06:16:55;;;;;;;7.35;3.22;;;;;;;-144.47;45.01;53265.25;4994665;28;20040;-66
2022/06/03 06:19:48;;;;;;;7.15;2.67;;;;;;;-144.47;44.10;53207.66;4992263;28;20030;-68
2022/06/03 06:22:30;;;;;;;9.02;2.90;;;;;;;-144.47;43.32;53261.28;5003602;28;20036;-67
2022/06/03 06:25:20;;;;;;;5.20;2.88;;;;;;;-144.47;43.07;53265.25;4979114;28;20034;-70
2022/06/03 06:27:49;;;;;;;4.90;2.70;;;;;;;-144.47;43.34;53273.22;4994256;28;20026;-64
2022/06/03 06:30:24;;;;;;;5.18;2.70;;;;;;;-144.47;43.41;53235.47;4999308;28;20037;-67
2022/06/03 06:33:12;;;;;;;5.95;2.50;;;;;;;-144.47;43.39;53203.69;5005894;28;20110;-68
2022/06/03 06:36:02;;;;;;;6.75;3.17;;;;;;;-144.47;43.19;53227.53;4992187;28;20441;-66
2022/06/03 06:38:46;;;;;;;11.63;3.17;;;;;;;-144.47;42.97;53217.59;5003828;28;20098;-71
2022/06/03 06:41:39;;;;;;;5.97;2.92;;;;;;;-144.47;43.69;53271.22;4980057;28;20050;-70
2022/06/03 06:44:11;;;;;;;5.03;2.85;;;;;;;-144.47;43.23;53201.69;4991491;28;20027;-68
2022/06/03 06:46:59;;;;;;;4.95;2.90;;;;;;;-144.47;43.49;53265.25;4991406;28;20072;-68
2022/06/03 06:49:35;;;;;;;20.57;3.03;;;;;;;-144.47;43.09;53275.19;4979908;28;20033;-68
2022/06/03 06:52:19;;;;;;;8.07;2.88;;;;;;;-144.47;42.91;53247.38;4988139;28;20030;-68
2022/06/03 06:54:52;;;;;;;5.00;2.70;;;;;;;-144.47;42.84;53221.56;4997291;28;20033;-66
2022/06/03 06:57:34;;;;;;;7.63;2.53;;;;;;;-144.47;42.45;53235.47;5003548;28;20137;-68
2022/06/03 07:00:22;;;;;;;9.07;2.75;;;;;;;-144.47;42.50;53245.41;5002536;28;20069;-69
2022/06/03 07:02:50;;;;;;;5.88;3.45;;;;;;;-144.47;41.97;53203.69;4991346;28;20026;-69
2022/06/03 07:05:41;;;;;;;12.05;2.63;;;;;;;-144.47;41.46;53233.47;4990859;28;20478;-67
2022/06/03 07:08:36;;;;;;;9.40;2.50;;;;;;;-144.47;41.30;53247.38;4978128;28;20204;-67
2022/06/03 07:14:26;;;;;;;4.82;2.72;;;;;;;-144.47;41.32;53197.72;4957563;28;20041;-68
2022/06/03 07:20:07;;;;;;;4.75;2.20;;;;;;;-144.47;40.35;53249.38;5002399;28;20060;-66
2022/06/03 07:22:38;;;;;;;7.22;2.72;;;;;;;-144.47;40.33;53215.59;4981339;28;20507;-68
2022/06/03 07:25:28;;;;;;;5.65;2.70;;;;;;;-144.47;40.52;53243.41;4992361;28;20026;-64
2022/06/03 07:28:00;;;;;;;11.20;3.10;;;;;;;-144.47;39.62;53225.53;5001998;28;20138;-70
2022/06/03 07:30:41;;;;;;;10.25;2.65;;;;;;;-144.47;39.92;53169.91;4981381;28;20267;-68
2022/06/03 07:33:15;;;;;;;8.48;2.60;;;;;;;-144.47;38.91;53213.63;5008528;28;20025;-67
2022/06/03 07:35:54;;;;;;;8.75;2.72;;;;;;;-144.47;38.89;53211.63;4999713;28;20029;-66
2022/06/03 07:38:25;;;;;;;13.80;3.45;;;;;;;-144.47;38.43;53221.56;5010249;28;20037;-69
2022/06/03 07:41:03;;;;;;;8.68;2.10;;;;;;;-144.47;38.57;53195.75;5009910;28;20072;-69
2022/06/03 07:43:41;;;;;;;10.35;2.00;;;;;;;-144.47;37.48;53189.78;5009129;28;20041;-68
2022/06/03 07:46:30;;;;;;;8.73;2.15;;;;;;;-144.47;37.45;53169.91;5020379;23;20056;-68
2022/06/03 07:48:55;;;;;;;8.48;2.17;;;;;;;-144.47;37.38;53191.78;5008771;28;20559;-68
2022/06/03 07:51:31;;;;;;;4.88;1.83;;;;;;;-144.47;36.90;53199.72;5009571;28;20054;-67
2022/06/03 07:54:13;;;;;;;4.43;1.83;;;;;;;-144.47;36.36;53169.91;5009511;28;20105;-67
2022/06/03 07:56:39;;;;;;;7.88;1.85;;;;;;;-144.47;36.85;53163.97;4988885;28;20057;-70
2022/06/03 07:59:19;;;;;;;5.78;2.88;;;;;;;-144.47;36.82;53183.81;4989163;28;20022;-67
2022/06/03 08:02:13;;;;;;;9.90;1.80;;;;;;;-144.47;36.32;53213.63;4989737;28;20078;-67
2022/06/03 08:04:40;;;;;;;10.20;2.30;;;;;;;-144.47;35.93;53249.38;4990425;28;20030;-66
2022/06/03 08:12:59;;;;;;;7.38;1.90;;;;;;;-144.47;35.26;53187.78;4983757;28;20056;-70
2022/06/03 08:15:39;;;;;;;6.57;1.88;;;;;;;-144.47;35.38;53201.69;4990313;28;20122;-68
2022/06/03 08:18:06;;;;;;;11.07;2.20;;;;;;;-144.47;36.01;53203.69;4989365;28;20382;-69
2022/06/03 08:20:43;;;;;;;5.67;1.90;;;;;;;-144.47;35.28;53183.81;4988402;28;20019;-68
2022/06/03 08:23:09;;;;;;;5.10;2.13;;;;;;;-144.47;35.45;53193.75;4988558;28;20536;-68
2022/06/03 08:25:40;;;;;;;5.22;2.10;;;;;;;-144.47;35.59;53171.91;4988721;28;20147;-67
2022/06/03 08:28:11;;;;;;;4.25;2.03;;;;;;;-144.47;35.58;53193.75;4987171;28;20023;-68
2022/06/03 08:30:39;;;;;;;4.88;2.13;;;;;;;-144.47;35.41;53209.66;5002659;28;20120;-68
2022/06/03 08:33:08;;;;;;;11.38;2.25;;;;;;;-144.47;35.61;53179.84;4987889;28;20350;-68
2022/06/03 08:35:42;;;;;;;6.82;2.20;;;;;;;-144.47;35.78;53138.13;4988875;28;20054;-66
2022/06/03 08:38:19;;;;;;;10.30;2.22;;;;;;;-144.47;35.44;53187.78;4990529;28;20124;-68
2022/06/03 08:40:44;;;;;;;5.75;2.33;;;;;;;-144.47;35.46;53199.72;4993282;28;20073;-70
2022/06/03 08:43:28;;;;;;;4.97;2.20;;;;;;;-144.47;35.48;53197.72;4990899;28;20030;-67
2022/06/03 08:46:01;;;;;;;4.40;1.95;;;;;;;-144.47;35.56;53185.81;4992878;28;20034;-67
2022/06/03 08:48:39;;;;;;;6.68;2.33;;;;;;;-144.47;35.35;53181.84;4994399;28;20149;-68
2022/06/03 08:51:12;;;;;;;4.72;1.95;;;;;;;-144.47;35.42;53158.00;4992889;28;20476;-70
2022/06/03 08:53:43;;;;;;;7.93;2.60;;;;;;;-144.47;35.41;53181.84;4999300;28;20354;-72
2022/06/03 08:56:14;;;;;;;8.50;2.28;;;;;;;-144.47;35.46;53205.66;5000316;28;20022;-69
2022/06/03 08:58:58;;;;;;;12.60;2.67;;;;;;;-144.47;35.50;53191.78;4990111;28;20027;-68
2022/06/03 09:01:53;;;;;;;12.70;3.17;;;;;;;-144.47;35.63;53181.84;4991169;28;20100;-69
2022/06/03 09:04:21;;;;;;;9.07;2.35;;;;;;;-144.47;35.65;53150.06;4991511;28;20052;-66
2022/06/03 09:06:51;;;;;;;8.45;2.70;;;;;;;-144.47;35.91;53189.78;4991187;28;20026;-68
2022/06/03 09:09:25;;;;;;;12.10;2.53;;;;;;;-144.47;35.75;53199.72;4990486;28;20092;-68
2022/06/03 09:12:03;;;;;;;10.60;2.85;;;;;;;-144.47;35.14;53154.03;4990917;28;20260;-66
2022/06/03 09:14:29;;;;;;;8.07;2.70;;;;;;;-144.47;35.87;53130.19;4982875;28;20030;-69
2022/06/03 09:17:03;;;;;;;9.77;2.58;;;;;;;-144.47;35.88;53193.75;4990691;28;20360;-69
2022/06/03 09:19:38;;;;;;;6.32;2.40;;;;;;;-144.47;35.57;53175.88;4990609;28;20073;-69
2022/06/03 09:22:11;;;;;;;12.27;3.22;;;;;;;-144.47;35.58;53185.81;4990591;28;20018;-69
2022/06/03 09:24:40;;;;;;;6.40;3.35;;;;;;;-144.47;35.60;53150.06;4988946;28;20038;-67
2022/06/03 09:27:06;;;;;;;;;;;;;;;-144.47;35.50;53156.00;4990219;28;20061;-66
2022/06/03 09:29:33;;;;;;;10.77;3.20;;;;;;;-144.47;35.57;53146.09;4989207;28;19914;-69
2022/06/03 09:32:01;;;;;;;6.95;2.53;;;;;;;-144.47;35.71;53160.00;4991591;28;20108;-68
2022/06/03 09:34:48;;;;;;;13.48;2.70;;;;;;;-144.47;35.47;53187.78;4991183;28;20508;-65
2022/06/03 09:37:21;;;;;;;7.97;3.03;;;;;;;-144.47;35.51;53134.16;4990677;28;20366;-68
2022/06/03 09:39:49;;;;;;;12.95;2.72;;;;;;;-144.47;35.49;53169.91;4991120;28;20026;-69
2022/06/03 09:42:17;;;;;;;8.23;3.00;;;;;;;-144.47;35.21;53146.09;4990171;28;20467;-68
2022/06/03 09:44:45;;;;;;;13.80;3.78;;;;;;;-144.47;35.54;53181.84;4990968;28;20022;-67
2022/06/03 09:47:14;;;;;;;7.23;2.80;;;;;;;-144.47;35.36;53152.03;4991013;28;20073;-69
2022/06/03 09:49:40;;;;;;;10.50;2.90;;;;;;;-144.47;35.02;53140.13;4989873;28;20264;-66
2022/06/03 09:52:16;;;;;;;19.92;3.47;;;;;;;-144.47;35.20;53177.88;4992837;28;20020;-67
2022/06/03 09:54:44;;;;;;;12.15;3.15;;;;;;;-144.47;35.11;53148.06;4992638;28;20114;-69
2022/06/03 09:57:18;;;;;;;6.78;2.90;;;;;;;-144.47;35.30;53181.84;4989175;28;20121;-67
2022/06/03 09:59:55;;;;;;;6.88;3.08;;;;;;;-144.47;34.46;53126.22;4988593;28;20026;-66
2022/06/03 10:02:20;;;;;;;11.38;4.07;;;;;;;-144.47;35.49;53169.91;4990664;28;20030;-68
2022/06/03 10:04:45;;;;;;;7.00;3.03;;;;;;;-144.47;35.07;53146.09;4990093;28;20033;-66
2022/06/03 10:07:11;;;;;;;7.85;3.00;;;;;;;-144.47;34.64;53187.78;4991434;28;20046;-67
2022/06/03 10:15:39;;;;;;;6.43;3.45;;;;;;;-144.47;35.18;53150.06;4989000;28;20030;-67
2022/06/03 10:18:20;;;;;;;11.40;3.60;;;;;;;-144.47;34.90;53181.84;4989952;28;20026;-67
2022/06/03 10:20:46;;;;;;;9.43;3.45;;;;;;;-144.47;34.59;53167.94;4990624;28;20217;-69
2022/06/03 10:23:12;;;;;;;7.63;3.30;;;;;;;-144.47;34.67;53132.19;4989880;28;20558;-67
2022/06/03 10:25:49;;;;;;;8.27;3.65;;;;;;;-144.47;34.83;53169.91;4989642;28;20503;-67
2022/06/03 10:28:15;;;;;;;13.60;4.10;;;;;;;-144.47;34.56;53154.03;4986446;28;20121;-68
2022/06/03 10:30:42;;;;;;;13.77;4.78;;;;;;;-144.47;34.53;53146.09;4988330;28;20056;-66
2022/06/03 10:33:19;;;;;;;8.80;3.45;;;;;;;-144.47;34.21;53140.13;4989099;28;20456;-68
2022/06/03 10:35:46;;;;;;;11.93;3.30;;;;;;;-144.47;34.07;53096.41;4989253;28;20031;-68
2022/06/03 10:38:16;;;;;;;7.97;3.95;;;;;;;-144.47;33.84;53173.88;4990050;28;20026;-67
2022/06/03 10:40:46;;;;;;;10.00;3.10;;;;;;;-144.47;34.23;53148.06;5004085;28;20028;-68
2022/06/03 10:43:12;;;;;;;12.55;3.63;;;;;;;-144.47;34.01;53154.03;4987927;28;20040;-65
2022/06/03 10:45:38;;;;;;;6.57;3.53;;;;;;;-144.47;33.55;53122.25;4989871;28;20030;-67
2022/06/03 10:48:20;;;;;;;15.68;3.58;;;;;;;-144.47;33.84;53138.13;4989666;28;20083;-66
2022/06/03 10:50:46;;;;;;;11.50;3.70;;;;;;;-144.47;33.61;53150.06;4988640;28;20033;-68
2022/06/03 11:01:44;;;;;;;17.02;4.47;;;;;;;-144.47;32.85;53128.22;4991014;28;20126;-69
2022/06/03 11:04:30;;;;;;;8.07;3.45;;;;;;;-144.47;32.93;53130.19;4989477;28;20081;-69
2022/06/03 11:07:00;;;;;;;6.93;3.38;;;;;;;-144.47;33.10;53154.03;4986207;28;20511;-67
2022/06/03 11:09:26;;;;;;;8.25;3.53;;;;;;;-144.47;32.68;53130.19;4988069;28;20027;-67
2022/06/03 11:11:59;;;;;;;17.40;3.30;;;;;;;-144.47;32.81;53130.19;4988170;28;20037;-67
2022/06/03 11:14:27;;;;;;;11.15;3.33;;;;;;;-144.47;31.91;53060.66;5002672;28;20111;-69
2022/06/03 11:17:17;;;;;;;5.38;2.97;;;;;;;-144.47;32.18;53120.25;4988764;28;20030;-68
2022/06/03 11:19:47;;;;;;;7.13;3.08;;;;;;;-144.47;32.31;53106.34;4988166;28;20030;-67
2022/06/03 11:22:33;;;;;;;9.10;3.30;;;;;;;-144.47;32.73;53084.50;4988556;28;20030;-65
2022/06/03 11:25:31;;;;;;;12.77;3.53;;;;;;;-144.47;31.88;53132.19;4987535;28;20074;-68
2022/06/03 11:28:02;;;;;;;6.40;3.00;;;;;;;-144.47;32.23;53114.31;4987075;28;20107;-69
2022/06/03 11:30:36;;;;;;;10.65;3.90;;;;;;;-144.47;32.43;53092.44;4985155;28;20428;-67
2022/06/03 11:33:07;;;;;;;7.88;3.30;;;;;;;-144.47;31.91;53158.00;4987677;28;20029;-68
2022/06/03 11:35:44;;;;;;;9.65;3.22;;;;;;;-144.47;31.67;53074.56;4988067;28;20041;-67
2022/06/03 11:38:16;;;;;;;8.95;3.17;;;;;;;-144.47;31.29;53062.66;4989169;28;20053;-67
2022/06/03 11:40:51;;;;;;;15.07;3.30;;;;;;;-144.47;31.11;53146.09;4990024;28;20218;-68
2022/06/03 11:43:24;;;;;;;6.78;2.88;;;;;;;-144.47;31.25;53154.03;4988336;28;20026;-67
2022/06/03 11:45:56;;;;;;;15.18;3.10;;;;;;;-144.47;30.94;53118.28;4988611;28;20022;-67
2022/06/03 11:48:36;;;;;;;5.50;2.83;;;;;;;-144.47;31.02;53114.31;4989733;28;20113;-66
2022/06/03 11:51:02;;;;;;;14.70;3.60;;;;;;;-144.47;31.21;53106.34;4988618;28;20135;-69
2022/06/03 11:53:31;;;;;;;11.73;3.28;;;;;;;-144.47;30.86;53106.34;4988519;28;20034;-67
2022/06/03 11:56:01;;;;;;;9.70;3.22;;;;;;;-144.47;30.28;53104.38;4988392;28;20110;-69
2022/06/03 11:58:38;;;;;;;5.95;2.83;;;;;;;-144.47;30.17;53140.13;4985255;28;20026;-69
2022/06/03 12:01:09;;;;;;;8.95;3.13;;;;;;;-144.47;30.83;53106.34;4987752;28;20125;-67
2022/06/03 12:03:59;;;;;;;12.68;3.13;;;;;;;-144.47;30.37;53104.38;4988843;28;20576;-69
2022/06/03 12:06:30;;;;;;;6.30;2.55;;;;;;;-144.47;30.32;53074.56;4986603;28;20328;-68
2022/06/03 12:09:31;;;;;;;6.93;2.58;;;;;;;-144.47;30.27;53112.31;4988593;28;20030;-66
2022/06/03 12:15:32;;;;;;;11.23;3.25;;;;;;;-144.47;30.08;53088.47;4991843;28;20165;-68
2022/06/03 12:18:07;;;;;;;7.90;3.00;;;;;;;-144.47;29.59;53094.44;4991738;28;20464;-66
2022/06/03 12:20:48;;;;;;;10.75;2.72;;;;;;;-144.47;29.57;53078.53;4991008;28;20026;-66
2022/06/03 12:23:13;;;;;;;7.28;3.10;;;;;;;-144.47;29.67;53096.41;4991778;28;20022;-68
2022/06/03 12:25:48;;;;;;;11.70;3.78;;;;;;;-144.47;29.83;53070.59;4992239;28;20397;-67
2022/06/03 12:28:41;;;;;;;8.68;3.20;;;;;;;-144.47;30.02;53090.47;4988897;28;20507;-67
2022/06/03 12:31:19;;;;;;;6.72;3.30;;;;;;;-144.47;29.32;53102.38;4991063;28;20056;-67
2022/06/03 12:34:09;;;;;;;8.43;2.57;;;;;;;-144.47;28.95;53082.53;4979929;28;20269;-67
2022/06/03 12:36:50;;;;;;;7.22;2.72;;;;;;;-144.47;29.29;53100.41;4991836;28;20101;-66
2022/06/03 12:39:18;;;;;;;6.15;3.10;;;;;;;-144.47;28.68;53098.41;4992647;28;20038;-68
2022/06/03 12:41:44;;;;;;;12.07;2.92;;;;;;;-144.47;28.33;53086.50;4992056;28;20135;-69